Time;durP1;ratioP1;P1;durP2;ratioP2;P2;SDS_P1;SDS_P2;PMS_P1;PMS_P2;Temp;Humidity;BMP_temperature;BMP_pressure;BME280_temperature;BME280_humidity;BME280_pressure;Samples;Min_cycle;Max_cycle;Signal;HPM_P1;HPM_P2
2023/05/28 00:04:18;;;;;;;1999.90;999.90;;;14.70;99.90;;;;;;6689578;89;20272;-80
2023/05/28 00:14:19;;;;;;;1999.90;999.90;;;14.50;99.90;;;;;;6679727;89;20333;-80
2023/05/28 00:24:19;;;;;;;1999.90;999.90;;;14.20;99.90;;;;;;6696614;89;20226;-80
2023/05/28 00:34:20;;;;;;;1999.90;999.90;;;13.90;99.90;;;;;;6677756;89;20207;-80
2023/05/28 00:44:20;;;;;;;1999.90;999.90;;;13.70;99.90;;;;;;6696973;88;20590;-80
2023/05/28 00:54:25;;;;;;;1999.90;999.90;;;13.50;99.90;;;;;;6689912;89;20243;-80
2023/05/28 01:04:28;;;;;;;1999.90;999.90;;;13.20;99.90;;;;;;6731508;88;20228;-79
2023/05/28 01:14:30;;;;;;;1999.90;999.90;;;13.10;99.90;;;;;;6730506;88;20689;-80
2023/05/28 01:24:34;;;;;;;1999.90;999.90;;;13.00;99.90;;;;;;6719308;88;20199;-80
2023/05/28 01:34:34;;;;;;;1999.90;999.90;;;12.70;99.90;;;;;;6700423;78;20321;-79
2023/05/28 01:44:35;;;;;;;1999.90;999.90;;;12.70;99.90;;;;;;6676376;88;20199;-79
2023/05/28 01:54:36;;;;;;;1999.90;999.90;;;12.60;99.90;;;;;;6669933;88;20190;-79
2023/05/28 02:04:36;;;;;;;1999.90;999.90;;;12.40;99.90;;;;;;6669263;89;20695;-79
2023/05/28 02:14:37;;;;;;;1999.90;999.90;;;12.50;99.90;;;;;;6669064;89;20196;-80
2023/05/28 02:24:38;;;;;;;1999.90;999.90;;;12.30;99.90;;;;;;6670575;89;20239;-79
2023/05/28 02:34:39;;;;;;;1999.90;999.90;;;12.20;99.90;;;;;;6670363;89;20842;-79
2023/05/28 02:44:39;;;;;;;1999.90;999.90;;;12.20;99.90;;;;;;6668553;88;20191;-79
2023/05/28 02:54:40;;;;;;;1999.90;999.90;;;12.10;99.90;;;;;;6678624;89;20217;-79
2023/05/28 03:04:40;;;;;;;1999.90;999.90;;;11.80;99.90;;;;;;6666645;89;20254;-79
2023/05/28 03:14:41;;;;;;;1999.90;999.90;;;11.50;99.90;;;;;;6671940;89;20575;-79
2023/05/28 03:24:41;;;;;;;1999.90;999.90;;;11.30;99.90;;;;;;6672958;89;20212;-79
2023/05/28 03:34:42;;;;;;;1999.90;999.90;;;11.40;99.90;;;;;;6670180;89;20225;-78
2023/05/28 03:44:43;;;;;;;1999.90;999.90;;;11.30;99.90;;;;;;6669671;89;20200;-78
2023/05/28 03:54:43;;;;;;;1999.90;999.90;;;11.20;99.90;;;;;;6668145;89;20265;-77
2023/05/28 04:04:45;;;;;;;1999.90;999.90;;;10.90;99.90;;;;;;6669852;89;20180;-78
2023/05/28 04:14:45;;;;;;;1999.90;999.90;;;10.70;99.90;;;;;;6665791;89;20321;-80
2023/05/28 04:24:47;;;;;;;1999.90;999.90;;;10.70;99.90;;;;;;6676186;89;20325;-76
2023/05/28 04:34:47;;;;;;;1999.90;999.90;;;11.00;99.90;;;;;;6669814;89;20200;-79
2023/05/28 04:44:48;;;;;;;1999.90;999.90;;;11.20;99.90;;;;;;6675698;88;20204;-79
2023/05/28 04:54:48;;;;;;;1999.90;999.90;;;11.20;99.90;;;;;;6669881;88;20342;-78
2023/05/28 05:04:49;;;;;;;1999.90;999.90;;;11.30;99.90;;;;;;6670277;88;20265;-77
2023/05/28 05:14:50;;;;;;;1999.90;999.90;;;11.60;99.90;;;;;;6668676;89;20183;-79
2023/05/28 05:24:50;;;;;;;1999.90;999.90;;;11.60;99.90;;;;;;6667730;88;20783;-79
2023/05/28 05:34:51;;;;;;;1999.90;999.90;;;12.00;99.90;;;;;;6670253;89;20270;-79
2023/05/28 05:44:52;;;;;;;1999.90;999.90;;;12.30;99.90;;;;;;6668922;89;20218;-78
2023/05/28 05:54:53;;;;;;;1999.90;999.90;;;12.60;99.90;;;;;;6669581;89;20227;-78
2023/05/28 06:04:53;;;;;;;1999.90;999.90;;;13.10;99.90;;;;;;6670905;89;20295;-79
2023/05/28 06:14:55;;;;;;;1999.90;999.90;;;14.20;99.90;;;;;;6668814;89;20208;-80
2023/05/28 06:24:56;;;;;;;1999.90;999.90;;;15.30;99.90;;;;;;6666963;89;20986;-80
2023/05/28 06:34:56;;;;;;;1999.90;999.90;;;16.10;99.90;;;;;;6664214;89;20589;-80
2023/05/28 06:44:58;;;;;;;1999.90;999.90;;;16.70;99.90;;;;;;6664818;89;20203;-80
2023/05/28 06:54:58;;;;;;;1999.90;999.90;;;17.20;99.90;;;;;;6668011;89;20237;-79
2023/05/28 07:04:59;;;;;;;1999.90;999.90;;;18.10;99.90;;;;;;6670611;89;20228;-78
2023/05/28 07:15:00;;;;;;;1999.90;999.90;;;19.00;99.90;;;;;;6670820;89;20236;-79
2023/05/28 07:25:00;;;;;;;1999.90;999.90;;;19.40;99.90;;;;;;6671067;89;20833;-80
2023/05/28 07:35:42;;;;;;;1999.90;999.90;;;20.00;99.80;;;;;;6695424;77;20200;-82
2023/05/28 07:45:42;;;;;;;1999.90;999.90;;;20.60;99.30;;;;;;6770648;88;20216;-80
2023/05/28 07:55:44;;;;;;;1999.90;999.90;;;21.40;97.60;;;;;;6773550;88;20187;-83
2023/05/28 08:05:44;;;;;;;1999.90;999.90;;;21.80;96.40;;;;;;6781095;88;20194;-81
2023/05/28 08:15:45;;;;;;;1999.90;999.90;;;22.70;95.00;;;;;;6782204;88;20152;-79
2023/05/28 08:25:45;;;;;;;1999.90;999.90;;;23.50;94.30;;;;;;6764273;88;20213;-81
2023/05/28 08:35:46;;;;;;;1999.90;999.90;;;23.90;94.70;;;;;;6778496;87;20195;-80
2023/05/28 08:45:47;;;;;;;1999.90;999.90;;;24.70;92.50;;;;;;6765061;88;20272;-81
2023/05/28 08:55:48;;;;;;;1999.90;999.90;;;25.20;90.60;;;;;;6777518;88;20180;-81
2023/05/28 09:05:48;;;;;;;1999.90;999.90;;;25.90;89.30;;;;;;6782686;87;20218;-81
2023/05/28 09:15:53;;;;;;;1999.90;999.90;;;26.60;88.70;;;;;;6777368;88;20149;-80
2023/05/28 09:25:56;;;;;;;1999.90;999.90;;;27.10;85.10;;;;;;6763033;88;20196;-84
2023/05/28 09:36:01;;;;;;;1999.90;999.90;;;27.30;85.50;;;;;;6775629;88;20686;-81
2023/05/28 09:46:08;;;;;;;1999.90;999.90;;;28.10;83.90;;;;;;6755469;88;20741;-83
2023/05/28 09:56:10;;;;;;;1999.90;999.90;;;28.10;82.50;;;;;;6746295;88;20246;-81
2023/05/28 10:06:14;;;;;;;1999.90;999.90;;;28.60;80.90;;;;;;6749199;88;20251;-82
2023/05/28 10:16:15;;;;;;;1999.90;999.90;;;29.80;78.70;;;;;;6746154;88;20188;-81
2023/05/28 10:26:16;;;;;;;1999.90;999.90;;;29.20;77.30;;;;;;6753137;88;20209;-83
2023/05/28 10:36:17;;;;;;;;;;;30.10;77.50;;;;;;6761044;88;20251;-83
2023/05/28 10:46:24;;;;;;;1999.90;999.90;;;31.20;74.70;;;;;;6764489;88;20069;-82
2023/05/28 10:56:26;;;;;;;1999.90;999.90;;;31.50;71.70;;;;;;6763585;88;20911;-81
2023/05/28 11:06:27;;;;;;;1999.90;999.90;;;31.00;71.10;;;;;;6764329;88;20173;-83
2023/05/28 11:16:31;;;;;;;1999.90;999.90;;;30.60;67.00;;;;;;6763861;88;20193;-84
2023/05/28 11:26:32;;;;;;;1999.90;999.90;;;32.10;58.40;;;;;;6762517;88;20322;-82
2023/05/28 11:36:43;;;;;;;1999.90;999.90;;;33.20;62.60;;;;;;6763893;88;20731;-82
2023/05/28 11:46:44;;;;;;;1999.90;999.90;;;32.20;63.20;;;;;;6761362;88;20160;-82
2023/05/28 11:56:48;;;;;;;1999.90;999.90;;;32.10;63.20;;;;;;6760207;88;20168;-83
2023/05/28 12:06:52;;;;;;;1999.90;999.90;;;32.60;63.40;;;;;;6759898;88;20192;-83
2023/05/28 12:16:53;;;;;;;1999.90;999.90;;;33.10;61.60;;;;;;6759366;88;20184;-82
2023/05/28 12:26:54;;;;;;;1999.90;999.90;;;32.70;62.80;;;;;;6764188;88;20205;-82
2023/05/28 12:36:55;;;;;;;1999.90;999.90;;;32.10;61.00;;;;;;6763577;88;20230;-81
2023/05/28 12:46:55;;;;;;;1999.90;999.90;;;32.60;63.00;;;;;;6763848;88;20708;-82
2023/05/28 12:56:56;;;;;;;1999.90;999.90;;;32.50;60.30;;;;;;6764643;88;20192;-81
2023/05/28 13:06:56;;;;;;;1999.90;999.90;;;33.00;60.50;;;;;;6760359;88;20165;-82
2023/05/28 13:16:57;;;;;;;1999.90;999.90;;;33.80;59.80;;;;;;6764193;88;20196;-83
2023/05/28 13:26:58;;;;;;;1999.90;999.90;;;33.90;59.00;;;;;;6764154;88;20576;-83
2023/05/28 13:36:58;;;;;;;1999.90;999.90;;;33.80;58.70;;;;;;6760688;88;20196;-82
2023/05/28 13:46:59;;;;;;;1999.90;999.90;;;33.30;59.10;;;;;;6758299;88;20217;-82
2023/05/28 13:57:00;;;;;;;1999.90;999.90;;;33.80;57.10;;;;;;6758549;88;20216;-82
2023/05/28 14:07:01;;;;;;;1999.90;999.90;;;34.10;57.40;;;;;;6720181;88;20297;-82
2023/05/28 14:17:02;;;;;;;1999.90;999.90;;;33.40;56.40;;;;;;6701929;88;20342;-82
2023/05/28 14:27:03;;;;;;;1999.90;999.90;;;33.30;57.40;;;;;;6688377;89;20291;-81
2023/05/28 14:37:04;;;;;;;1999.90;999.90;;;33.10;56.20;;;;;;6700848;88;20603;-82
2023/05/28 14:47:05;;;;;;;1999.90;999.90;;;33.00;57.50;;;;;;6703830;88;20174;-82
2023/05/28 14:57:05;;;;;;;1999.90;999.90;;;32.20;58.60;;;;;;6729837;88;20203;-82
2023/05/28 15:07:07;;;;;;;1999.90;999.90;;;32.20;59.10;;;;;;6752683;88;20282;-81
2023/05/28 15:17:07;;;;;;;1999.90;999.90;;;31.50;58.70;;;;;;6719869;88;20190;-82
2023/05/28 15:27:09;;;;;;;1999.90;999.90;;;30.70;59.80;;;;;;6683620;89;20310;-81
2023/05/28 15:37:11;;;;;;;1999.90;999.90;;;30.70;61.60;;;;;;6682353;89;20427;-81
2023/05/28 15:47:11;;;;;;;1999.90;999.90;;;30.40;61.50;;;;;;6710038;88;20284;-81
2023/05/28 15:57:12;;;;;;;1999.90;999.90;;;29.70;61.90;;;;;;6746571;88;20211;-81
2023/05/28 16:07:13;;;;;;;1999.90;999.90;;;29.40;63.40;;;;;;6755362;88;20191;-80
2023/05/28 16:17:14;;;;;;;1999.90;999.90;;;29.00;63.50;;;;;;6757423;88;20168;-81
2023/05/28 16:27:15;;;;;;;1999.90;999.90;;;28.50;64.70;;;;;;6759471;88;20215;-80
2023/05/28 16:37:16;;;;;;;1999.90;999.90;;;27.80;65.80;;;;;;6759703;88;20206;-81
2023/05/28 16:47:17;;;;;;;1999.90;999.90;;;27.10;67.50;;;;;;6758711;88;20207;-80
2023/05/28 16:57:19;;;;;;;1999.90;999.90;;;27.00;68.70;;;;;;6758706;88;20325;-81
2023/05/28 17:07:19;;;;;;;1999.90;999.90;;;27.10;68.30;;;;;;6758153;88;20204;-81
2023/05/28 17:17:20;;;;;;;1999.90;999.90;;;27.20;67.20;;;;;;6758545;88;20296;-81
2023/05/28 17:27:20;;;;;;;1999.90;999.90;;;26.60;67.00;;;;;;6757629;88;20238;-81
2023/05/28 17:37:21;;;;;;;1999.90;999.90;;;26.40;66.80;;;;;;6757484;88;20205;-80
2023/05/28 17:47:22;;;;;;;1999.90;999.90;;;26.00;67.20;;;;;;6757742;88;20228;-80
2023/05/28 17:57:22;;;;;;;1999.90;999.90;;;25.50;67.80;;;;;;6758907;88;20236;-80
2023/05/28 18:07:23;;;;;;;1999.90;999.90;;;25.40;68.40;;;;;;6721664;88;20225;-81
2023/05/28 18:17:24;;;;;;;1999.90;999.90;;;25.00;68.80;;;;;;6721796;88;20353;-81
2023/05/28 18:27:24;;;;;;;1999.90;999.90;;;24.60;70.00;;;;;;6719761;88;20189;-80
2023/05/28 18:37:25;;;;;;;1999.90;999.90;;;24.30;70.80;;;;;;6748518;88;20270;-80
2023/05/28 18:47:25;;;;;;;1999.90;999.90;;;24.00;71.80;;;;;;6756795;88;20188;-83
2023/05/28 18:57:29;;;;;;;1999.90;999.90;;;23.80;73.80;;;;;;6756505;88;20252;-82
2023/05/28 19:07:30;;;;;;;1999.90;999.90;;;23.70;74.30;;;;;;6758441;88;21105;-81
2023/05/28 19:17:31;;;;;;;1999.90;999.90;;;23.40;75.30;;;;;;6757584;88;20216;-81
2023/05/28 19:27:32;;;;;;;1999.90;999.90;;;23.10;76.10;;;;;;6757319;88;20246;-81
2023/05/28 19:38:13;;;;;;;1999.90;999.90;;;22.80;76.80;;;;;;6719675;77;20216;-79
2023/05/28 19:48:15;;;;;;;1999.90;999.90;;;22.50;77.60;;;;;;6677786;89;20201;-80
2023/05/28 19:58:19;;;;;;;1999.90;999.90;;;22.40;78.30;;;;;;6684917;89;20195;-80
2023/05/28 20:08:20;;;;;;;1999.90;999.90;;;22.10;79.00;;;;;;6679773;89;20210;-80
2023/05/28 20:18:20;;;;;;;1999.90;999.90;;;21.80;80.10;;;;;;6678657;89;20681;-79
2023/05/28 20:28:21;;;;;;;1999.90;999.90;;;21.50;81.20;;;;;;6691244;88;20257;-79
2023/05/28 20:38:23;;;;;;;1999.90;999.90;;;21.40;81.40;;;;;;6675744;88;20691;-79
2023/05/28 20:48:24;;;;;;;1999.90;999.90;;;21.10;82.30;;;;;;6676469;89;20189;-81
2023/05/28 20:58:25;;;;;;;1999.90;999.90;;;21.00;82.80;;;;;;6677642;89;20729;-80
2023/05/28 21:08:26;;;;;;;1999.90;999.90;;;20.70;83.60;;;;;;6671256;88;20233;-79
2023/05/28 21:18:26;;;;;;;1999.90;999.90;;;20.50;84.50;;;;;;6676186;89;20556;-79
2023/05/28 21:28:27;;;;;;;1999.90;999.90;;;20.20;84.90;;;;;;6671945;89;20208;-80
2023/05/28 21:38:27;;;;;;;1999.90;999.90;;;19.90;86.20;;;;;;6694480;88;20298;-79
2023/05/28 21:48:28;;;;;;;1999.90;999.90;;;19.70;86.60;;;;;;6676784;89;20183;-78
2023/05/28 21:58:28;;;;;;;1999.90;999.90;;;19.60;87.40;;;;;;6683352;88;20240;-80
2023/05/28 22:08:29;;;;;;;1999.90;999.90;;;19.20;89.70;;;;;;6697386;88;20175;-78
2023/05/28 22:18:30;;;;;;;1999.90;999.90;;;19.00;90.50;;;;;;6668106;88;20682;-79
2023/05/28 22:28:31;;;;;;;1999.90;999.90;;;18.70;91.30;;;;;;6668911;88;20226;-82
2023/05/28 22:38:31;;;;;;;1999.90;999.90;;;18.60;92.10;;;;;;6665373;89;20732;-78
2023/05/28 22:48:32;;;;;;;1999.90;999.90;;;18.30;93.20;;;;;;6670688;88;20228;-79
2023/05/28 22:58:32;;;;;;;1999.90;999.90;;;18.30;95.10;;;;;;6669968;89;20716;-80
2023/05/28 23:08:33;;;;;;;1999.90;999.90;;;18.10;96.30;;;;;;6678379;88;20291;-80
2023/05/28 23:18:36;;;;;;;1999.90;999.90;;;18.00;97.50;;;;;;6671855;89;20209;-79
2023/05/28 23:28:36;;;;;;;1999.90;999.90;;;17.90;99.30;;;;;;6673952;89;20204;-79
2023/05/28 23:38:37;;;;;;;1999.90;999.90;;;17.80;99.90;;;;;;6667234;88;20730;-78
2023/05/28 23:48:37;;;;;;;1999.90;999.90;;;17.70;99.90;;;;;;6671805;89;20185;-81
2023/05/28 23:58:38;;;;;;;1999.90;999.90;;;17.50;99.90;;;;;;6685458;88;20195;-78
